createdAt,value
2017-12-11T00:00:38.001Z,7.97
2017-12-11T00:03:05.541Z,14.10
2017-12-11T00:05:33.868Z,11.47
2017-12-11T00:08:01.415Z,11.10
2017-12-11T00:10:28.979Z,12.00
2017-12-11T00:12:56.528Z,15.93
2017-12-11T00:15:24.085Z,10.67
2017-12-11T00:17:51.623Z,13.43
2017-12-11T00:20:19.974Z,11.77
2017-12-11T00:22:47.515Z,13.00
2017-12-11T00:25:15.055Z,17.03
2017-12-11T00:27:42.612Z,11.63
2017-12-11T00:30:10.214Z,9.10
2017-12-11T00:32:37.740Z,12.37
2017-12-11T00:35:06.053Z,11.60
2017-12-11T00:37:33.608Z,13.27
2017-12-11T00:40:01.912Z,13.73
2017-12-11T00:42:30.260Z,13.47
2017-12-11T00:44:57.787Z,13.00
2017-12-11T00:47:25.343Z,10.87
2017-12-11T00:49:52.883Z,16.00
2017-12-11T00:52:21.199Z,13.03
2017-12-11T00:54:48.732Z,13.10
2017-12-11T00:57:16.284Z,8.90
2017-12-11T00:59:43.836Z,15.87
2017-12-11T01:02:12.157Z,13.93
2017-12-11T01:04:39.691Z,18.10
2017-12-11T01:07:07.244Z,17.43
2017-12-11T01:09:34.771Z,13.10
2017-12-11T01:12:02.340Z,13.93
2017-12-11T01:14:29.875Z,12.23
2017-12-11T01:16:57.412Z,17.87
2017-12-11T01:19:24.963Z,9.40
2017-12-11T01:21:52.495Z,15.47
2017-12-11T01:24:20.823Z,14.50
2017-12-11T01:26:48.359Z,7.10
2017-12-11T01:29:15.909Z,10.33
2017-12-11T01:31:43.443Z,10.10
2017-12-11T01:34:11.764Z,19.00
2017-12-11T01:36:39.297Z,9.60
2017-12-11T01:39:06.852Z,13.07
2017-12-11T01:41:34.383Z,8.60
2017-12-11T01:44:01.930Z,9.83
2017-12-11T01:46:29.461Z,9.53
2017-12-11T01:48:57.776Z,10.87
2017-12-11T01:51:26.914Z,12.30
2017-12-11T01:53:55.808Z,15.13
2017-12-11T01:56:24.116Z,10.53
2017-12-11T01:58:51.668Z,7.27
2017-12-11T02:01:19.202Z,13.60
2017-12-11T02:03:46.765Z,5.17
2017-12-11T02:06:15.081Z,16.83
2017-12-11T02:08:42.639Z,10.00
2017-12-11T02:11:10.945Z,14.63
2017-12-11T02:13:39.244Z,10.70
2017-12-11T02:16:07.563Z,10.00
2017-12-11T02:18:35.096Z,5.93
2017-12-11T02:21:02.663Z,9.97
2017-12-11T02:23:30.184Z,9.50
2017-12-11T02:25:57.743Z,12.87
2017-12-11T02:28:25.272Z,9.70
2017-12-11T02:30:53.588Z,6.43
2017-12-11T02:33:21.120Z,10.07
2017-12-11T02:35:48.673Z,11.07
2017-12-11T02:38:16.220Z,14.33
2017-12-11T02:40:44.532Z,12.43
2017-12-11T02:43:12.076Z,6.60
2017-12-11T02:45:39.629Z,7.77
2017-12-11T02:48:07.164Z,7.03
2017-12-11T02:50:35.482Z,6.80
2017-12-11T02:53:03.776Z,9.13
2017-12-11T02:55:32.091Z,7.53
2017-12-11T02:57:59.616Z,9.07
2017-12-11T03:00:27.166Z,6.80
2017-12-11T03:02:54.695Z,13.23
2017-12-11T03:05:22.220Z,9.00
2017-12-11T03:07:49.787Z,10.13
2017-12-11T03:10:18.079Z,9.47
2017-12-11T03:12:45.631Z,15.50
2017-12-11T03:15:13.168Z,10.40
2017-12-11T03:17:41.488Z,16.60
2017-12-11T03:20:09.024Z,10.00
2017-12-11T03:22:36.580Z,13.43
2017-12-11T03:25:04.104Z,6.77
2017-12-11T03:27:31.665Z,15.33
2017-12-11T03:29:59.205Z,12.43
2017-12-11T03:32:26.776Z,14.00
2017-12-11T03:34:54.306Z,7.27
2017-12-11T03:37:21.856Z,10.37
2017-12-11T03:39:49.422Z,12.77
2017-12-11T03:42:17.736Z,13.33
2017-12-11T03:44:45.269Z,14.33
2017-12-11T03:47:12.802Z,11.03
2017-12-11T03:49:40.358Z,12.13
2017-12-11T03:52:07.891Z,13.97
2017-12-11T03:54:35.438Z,8.23
2017-12-11T03:57:03.748Z,15.47
2017-12-11T03:59:31.296Z,6.43
2017-12-11T04:01:58.840Z,5.27
2017-12-11T04:04:26.399Z,11.87
2017-12-11T04:06:53.928Z,9.37
2017-12-11T04:09:21.485Z,6.97
2017-12-11T04:11:49.014Z,10.93
2017-12-11T04:14:16.571Z,7.73
2017-12-11T04:16:44.103Z,20.00
2017-12-11T04:19:12.428Z,12.37
2017-12-11T04:21:40.020Z,16.30
2017-12-11T04:24:07.573Z,8.97
2017-12-11T04:26:35.877Z,16.53
2017-12-11T04:29:04.197Z,11.67
2017-12-11T04:31:32.004Z,8.60
2017-12-11T04:33:59.587Z,16.07
2017-12-11T04:36:27.129Z,9.07
2017-12-11T04:38:55.430Z,5.67
2017-12-11T04:41:23.754Z,7.50
2017-12-11T04:43:51.284Z,2.67
2017-12-11T04:46:18.844Z,4.87
2017-12-11T04:48:46.383Z,3.33
2017-12-11T04:51:14.700Z,4.23
2017-12-11T04:53:42.992Z,4.93
2017-12-11T04:56:11.320Z,5.63
2017-12-11T04:58:38.856Z,3.77
2017-12-11T05:01:06.412Z,6.97
2017-12-11T05:03:33.940Z,3.57
2017-12-11T05:06:01.488Z,4.20
2017-12-11T05:08:29.015Z,5.80
2017-12-11T05:10:57.336Z,7.40
2017-12-11T05:13:24.868Z,7.47
2017-12-11T05:15:52.445Z,4.20
2017-12-11T05:18:19.999Z,4.50
2017-12-11T05:20:47.529Z,6.60
2017-12-11T05:23:15.322Z,6.37
2017-12-11T05:25:42.851Z,8.40
2017-12-11T05:28:10.403Z,8.90
2017-12-11T05:30:38.697Z,5.30
2017-12-11T05:33:07.016Z,6.13
2017-12-11T05:35:34.556Z,5.97
2017-12-11T05:38:02.117Z,6.20
2017-12-11T05:40:29.663Z,6.20
2017-12-11T05:42:57.217Z,6.67
2017-12-11T05:45:24.779Z,7.57
2017-12-11T05:47:52.338Z,6.30
2017-12-11T05:50:20.216Z,5.80
2017-12-11T05:52:47.774Z,7.10
2017-12-11T05:55:16.072Z,6.87
2017-12-11T05:57:43.630Z,7.43
2017-12-11T06:00:11.161Z,6.60
2017-12-11T06:02:39.462Z,6.27
2017-12-11T06:05:07.773Z,7.83
2017-12-11T06:07:35.308Z,10.90
2017-12-11T06:10:02.860Z,8.10
2017-12-11T06:12:30.401Z,8.17
2017-12-11T06:14:58.718Z,7.97
2017-12-11T06:17:26.261Z,10.23
2017-12-11T06:19:53.812Z,8.50
2017-12-11T06:22:21.348Z,13.33
2017-12-11T06:24:49.667Z,10.43
2017-12-11T06:27:17.986Z,10.30
2017-12-11T06:29:45.544Z,13.07
2017-12-11T06:32:13.844Z,13.60
2017-12-11T06:34:42.168Z,14.80
2017-12-11T06:37:09.727Z,17.30
2017-12-11T06:39:38.052Z,17.43
2017-12-11T06:42:05.592Z,16.00
2017-12-11T06:44:33.204Z,16.53
2017-12-11T06:47:01.516Z,17.83
2017-12-11T06:49:29.056Z,16.93
2017-12-11T06:51:56.608Z,21.33
2017-12-11T06:54:24.167Z,19.07
2017-12-11T06:56:51.720Z,18.60
2017-12-11T06:59:19.270Z,18.17
2017-12-11T07:01:46.840Z,19.97
2017-12-11T07:04:14.382Z,22.67
2017-12-11T07:06:42.712Z,19.60
2017-12-11T07:09:10.261Z,20.60
2017-12-11T07:11:37.824Z,19.70
2017-12-11T07:14:05.374Z,22.30
2017-12-11T07:16:32.928Z,19.43
2017-12-11T07:19:01.245Z,18.87
2017-12-11T07:21:28.800Z,21.57
2017-12-11T07:23:57.108Z,20.20
2017-12-11T07:26:25.431Z,21.33
2017-12-11T07:28:52.972Z,21.30
2017-12-11T07:31:20.576Z,17.93
2017-12-11T07:33:48.876Z,17.70
2017-12-11T07:36:17.194Z,20.13
2017-12-11T07:38:45.516Z,23.20
2017-12-11T07:41:13.052Z,19.13
2017-12-11T07:43:40.603Z,20.50
2017-12-11T07:46:08.144Z,19.70
2017-12-11T07:48:36.460Z,18.07
2017-12-11T07:51:04.006Z,20.40
2017-12-11T07:53:31.569Z,25.97
2017-12-11T07:55:59.108Z,23.77
2017-12-11T07:58:26.668Z,16.87
2017-12-11T08:00:54.235Z,19.77
2017-12-11T08:03:21.789Z,18.67
2017-12-11T08:05:49.326Z,20.57
2017-12-11T08:08:17.663Z,19.10
2017-12-11T08:10:45.227Z,19.50
2017-12-11T08:13:12.772Z,21.17
2017-12-11T08:15:40.352Z,20.70
2017-12-11T08:18:07.887Z,18.20
2017-12-11T08:20:35.448Z,19.73
2017-12-11T08:23:03.759Z,18.10
2017-12-11T08:25:32.084Z,17.50
2017-12-11T08:27:59.617Z,20.33
2017-12-11T08:30:27.172Z,18.10
2017-12-11T08:32:54.817Z,16.50
2017-12-11T08:35:22.377Z,23.87
2017-12-11T08:37:49.913Z,19.13
2017-12-11T08:40:17.472Z,19.87
2017-12-11T08:42:45.029Z,19.70
2017-12-11T08:45:12.596Z,19.43
2017-12-11T08:47:40.149Z,21.43
2017-12-11T08:50:08.480Z,20.80
2017-12-11T08:52:36.024Z,17.33
2017-12-11T08:55:03.561Z,19.40
2017-12-11T08:57:31.120Z,21.73
2017-12-11T08:59:58.660Z,21.43
2017-12-11T09:02:26.222Z,20.80
2017-12-11T09:04:54.529Z,19.60
2017-12-11T09:07:22.847Z,21.07
2017-12-11T09:09:50.383Z,20.97
2017-12-11T09:12:17.956Z,24.80
2017-12-11T09:14:45.501Z,24.87
2017-12-11T09:17:13.060Z,21.70
2017-12-11T09:19:40.611Z,22.67
2017-12-11T09:22:08.172Z,19.83
2017-12-11T09:24:35.707Z,19.77
2017-12-11T09:27:03.743Z,19.60
2017-12-11T09:29:31.288Z,19.47
2017-12-11T09:31:59.612Z,18.30
2017-12-11T09:34:27.171Z,19.10
2017-12-11T09:36:54.705Z,19.93
2017-12-11T09:39:23.032Z,21.87
2017-12-11T09:41:50.571Z,20.00
2017-12-11T09:44:18.128Z,17.77
2017-12-11T09:46:46.435Z,21.40
2017-12-11T09:49:14.760Z,21.20
2017-12-11T09:51:42.291Z,16.00
2017-12-11T09:54:09.853Z,19.70
2017-12-11T09:56:37.392Z,18.20
2017-12-11T09:59:05.713Z,21.70
2017-12-11T10:01:33.249Z,17.37
2017-12-11T10:04:00.836Z,20.40
2017-12-11T10:06:28.379Z,23.47
2017-12-11T10:08:55.916Z,17.40
2017-12-11T10:11:24.266Z,18.53
2017-12-11T10:13:51.812Z,16.60
2017-12-11T10:16:20.148Z,14.80
2017-12-11T10:18:47.696Z,14.73
2017-12-11T10:21:16.030Z,15.43
2017-12-11T10:23:43.565Z,15.63
2017-12-11T10:26:11.121Z,16.40
2017-12-11T10:28:38.656Z,15.87
2017-12-11T10:31:06.977Z,15.77
2017-12-11T10:33:34.521Z,11.50
2017-12-11T10:36:02.087Z,16.07
2017-12-11T10:38:29.651Z,15.63
2017-12-11T10:40:57.216Z,14.10
2017-12-11T10:43:24.758Z,14.13
2017-12-11T10:45:52.291Z,18.70
2017-12-11T10:48:19.847Z,18.07
2017-12-11T10:50:48.157Z,14.53
2017-12-11T10:53:15.715Z,15.97
2017-12-11T10:55:43.252Z,14.30
2017-12-11T10:58:10.808Z,15.03
2017-12-11T11:00:38.340Z,12.27
2017-12-11T11:03:05.896Z,16.53
2017-12-11T11:05:33.428Z,11.90
2017-12-11T11:08:00.989Z,12.43
2017-12-11T11:10:28.544Z,12.93
2017-12-11T11:12:56.136Z,12.40
2017-12-11T11:15:23.676Z,12.80
2017-12-11T11:17:51.996Z,14.60
2017-12-11T11:20:19.532Z,14.17
2017-12-11T11:22:47.094Z,12.77
2017-12-11T11:25:15.392Z,13.60
2017-12-11T11:27:42.924Z,11.93
2017-12-11T11:30:11.241Z,14.13
2017-12-11T11:32:39.547Z,14.53
2017-12-11T11:35:07.867Z,11.73
2017-12-11T11:40:03.742Z,12.27
2017-12-11T11:42:31.284Z,12.63
2017-12-11T11:44:58.841Z,12.37
2017-12-11T11:47:26.388Z,11.47
2017-12-11T11:49:53.940Z,13.73
2017-12-11T11:52:21.479Z,13.33
2017-12-11T11:54:49.047Z,12.47
2017-12-11T11:57:16.591Z,12.87
2017-12-11T11:59:44.124Z,13.63
2017-12-11T12:02:11.674Z,11.03
2017-12-11T12:04:39.977Z,12.00
2017-12-11T12:07:08.292Z,11.00
2017-12-11T12:09:36.585Z,10.70
2017-12-11T12:12:04.905Z,10.60
2017-12-11T12:14:32.433Z,9.27
2017-12-11T12:16:59.988Z,9.47
2017-12-11T12:19:27.524Z,11.87
2017-12-11T12:21:55.839Z,10.37
2017-12-11T12:24:24.132Z,9.47
2017-12-11T12:26:52.456Z,10.60
2017-12-11T12:29:19.988Z,9.20
2017-12-11T12:31:47.543Z,11.57
2017-12-11T12:34:15.123Z,10.00
2017-12-11T12:36:42.647Z,9.00
2017-12-11T12:39:10.200Z,9.77
2017-12-11T12:41:37.729Z,9.00
2017-12-11T12:44:05.283Z,11.57
2017-12-11T12:46:32.817Z,15.20
2017-12-11T12:49:00.391Z,13.00
2017-12-11T12:51:28.693Z,12.57
2017-12-11T12:53:57.016Z,11.97
2017-12-11T12:56:24.548Z,10.27
2017-12-11T12:58:52.100Z,11.33
2017-12-11T13:01:19.632Z,11.80
2017-12-11T13:03:47.952Z,10.83
2017-12-11T13:06:16.260Z,14.57
2017-12-11T13:08:43.817Z,22.73
2017-12-11T13:11:11.364Z,18.27
2017-12-11T13:13:38.917Z,9.80
2017-12-11T13:16:06.452Z,12.07
2017-12-11T13:18:34.029Z,11.23
2017-12-11T13:21:01.577Z,9.73
2017-12-11T13:23:29.132Z,10.90
2017-12-11T13:25:57.437Z,10.90
2017-12-11T13:28:25.769Z,12.07
2017-12-11T13:30:53.320Z,10.07
2017-12-11T13:33:21.631Z,12.67
2017-12-11T13:35:49.948Z,12.07
2017-12-11T13:38:17.479Z,12.43
2017-12-11T13:40:45.036Z,13.37
2017-12-11T13:43:12.568Z,14.37
2017-12-11T13:45:40.918Z,17.47
2017-12-11T13:48:08.456Z,17.10
2017-12-11T13:50:36.780Z,14.63
2017-12-11T13:53:04.347Z,13.87
2017-12-11T13:55:31.900Z,21.03
2017-12-11T13:57:59.465Z,30.90
2017-12-11T14:00:27.021Z,28.10
2017-12-11T14:02:54.561Z,20.30
2017-12-11T14:05:22.093Z,20.10
2017-12-11T14:07:49.697Z,22.27
2017-12-11T14:10:17.221Z,20.97
2017-12-11T14:12:44.772Z,24.20
2017-12-11T14:15:12.328Z,19.97
2017-12-11T14:17:39.884Z,17.80
2017-12-11T14:20:08.188Z,16.07
2017-12-11T14:22:36.524Z,17.97
2017-12-11T14:25:04.060Z,22.03
2017-12-11T14:27:32.381Z,23.67
2017-12-11T14:30:00.686Z,30.80
2017-12-11T14:32:28.240Z,33.00
2017-12-11T14:34:55.781Z,27.30
2017-12-11T14:37:23.340Z,20.63
2017-12-11T14:39:50.875Z,23.20
2017-12-11T14:42:18.409Z,23.67
2017-12-11T14:44:45.979Z,25.73
2017-12-11T14:47:13.533Z,19.00
2017-12-11T14:49:41.116Z,23.60
2017-12-11T14:52:08.673Z,26.17
2017-12-11T14:54:36.237Z,21.83
2017-12-11T14:57:03.776Z,23.20
2017-12-11T14:59:31.348Z,29.50
2017-12-11T15:01:58.889Z,37.87
2017-12-11T15:04:26.459Z,56.10
2017-12-11T15:06:57.858Z,34.70
2017-12-11T15:09:25.537Z,32.27
2017-12-11T15:11:53.075Z,29.60
2017-12-11T15:14:21.620Z,26.60
2017-12-11T15:16:49.188Z,29.00
2017-12-11T15:19:17.528Z,29.27
2017-12-11T15:21:45.080Z,27.70
2017-12-11T15:24:12.632Z,30.53
2017-12-11T15:26:40.206Z,30.77
2017-12-11T15:29:07.757Z,31.93
2017-12-11T15:31:35.320Z,32.00
2017-12-11T15:34:03.480Z,31.67
2017-12-11T15:36:31.317Z,27.27
2017-12-11T15:38:59.316Z,28.43
2017-12-11T15:41:27.358Z,33.50
2017-12-11T15:43:54.948Z,34.23
2017-12-11T15:46:22.508Z,32.40
2017-12-11T15:48:50.073Z,35.70
2017-12-11T15:51:17.636Z,36.87
2017-12-11T15:53:45.176Z,37.37
2017-12-11T15:56:12.740Z,32.87
2017-12-11T15:58:40.279Z,27.47
2017-12-11T16:01:08.628Z,32.27
2017-12-11T16:03:36.192Z,29.50
2017-12-11T16:06:03.732Z,33.77
2017-12-11T16:08:32.076Z,33.47
2017-12-11T16:10:59.826Z,34.63
2017-12-11T16:13:28.166Z,34.80
2017-12-11T16:15:55.719Z,39.43
2017-12-11T16:18:24.047Z,43.37
2017-12-11T16:20:51.604Z,38.80
2017-12-11T16:23:19.167Z,48.47
2017-12-11T16:25:46.714Z,44.70
2017-12-11T16:28:14.275Z,44.27
2017-12-11T16:30:42.581Z,48.80
2017-12-11T16:33:10.921Z,45.10
2017-12-11T16:35:38.472Z,50.17
2017-12-11T16:38:06.800Z,45.23
2017-12-11T16:40:34.353Z,43.83
2017-12-11T16:43:02.845Z,42.10
2017-12-11T16:45:30.387Z,41.80
2017-12-11T16:47:57.948Z,38.10
2017-12-11T16:50:25.503Z,50.70
2017-12-11T16:52:53.040Z,82.37
2017-12-11T16:55:20.605Z,40.43
2017-12-11T16:57:48.140Z,47.10
2017-12-11T17:00:15.729Z,39.23
2017-12-11T17:02:43.423Z,46.20
2017-12-11T17:05:10.987Z,44.57
2017-12-11T17:07:38.526Z,45.83
2017-12-11T17:10:07.673Z,42.23
2017-12-11T17:12:36.112Z,35.57
2017-12-11T17:15:03.728Z,39.43
2017-12-11T17:17:32.052Z,34.23
2017-12-11T17:19:59.614Z,36.13
2017-12-11T17:22:27.915Z,43.90
2017-12-11T17:24:56.272Z,46.80
2017-12-11T17:27:23.809Z,52.30
2017-12-11T17:29:52.131Z,46.13
2017-12-11T17:32:19.671Z,45.43
2017-12-11T17:34:47.229Z,41.43
2017-12-11T17:37:14.766Z,38.63
2017-12-11T17:39:43.088Z,47.13
2017-12-11T17:42:10.629Z,42.60
2017-12-11T17:44:38.160Z,55.27
2017-12-11T17:47:05.720Z,49.97
2017-12-11T17:49:34.048Z,50.10
2017-12-11T17:52:01.620Z,55.90
2017-12-11T17:54:29.195Z,52.60
2017-12-11T17:56:57.521Z,45.47
2017-12-11T17:59:25.067Z,48.30
2017-12-11T18:01:53.392Z,48.37
2017-12-11T18:04:21.704Z,46.57
2017-12-11T18:06:49.260Z,51.30
2017-12-11T18:09:16.817Z,52.97
2017-12-11T18:11:44.376Z,51.13
2017-12-11T18:14:11.959Z,55.00
2017-12-11T18:16:39.518Z,48.00
2017-12-11T18:19:07.084Z,52.87
2017-12-11T18:21:34.662Z,52.17
2017-12-11T18:24:02.230Z,45.97
2017-12-11T18:26:29.796Z,55.63
2017-12-11T18:28:57.356Z,53.80
2017-12-11T18:31:26.084Z,51.93
2017-12-11T18:33:54.411Z,55.10
2017-12-11T18:36:22.898Z,50.27
2017-12-11T18:38:51.226Z,51.87
2017-12-11T18:41:19.012Z,50.27
2017-12-11T18:43:46.900Z,50.97
2017-12-11T18:46:14.632Z,48.93
2017-12-11T18:48:42.384Z,56.03
2017-12-11T18:51:09.954Z,48.50
2017-12-11T18:53:38.293Z,65.23
2017-12-11T18:56:05.870Z,46.53
2017-12-11T18:58:33.429Z,54.97
2017-12-11T19:01:01.747Z,52.20
2017-12-11T19:03:29.284Z,58.97
2017-12-11T19:05:56.841Z,50.93
2017-12-11T19:08:24.373Z,53.53
2017-12-11T19:10:51.952Z,56.40
2017-12-11T19:13:19.631Z,56.03
2017-12-11T19:15:47.237Z,65.37
2017-12-11T19:18:14.851Z,65.50
2017-12-11T19:20:42.432Z,53.57
2017-12-11T19:23:10.017Z,58.30
2017-12-11T19:25:37.589Z,57.60
2017-12-11T19:28:05.888Z,63.67
2017-12-11T19:30:33.442Z,59.03
2017-12-11T19:33:01.010Z,57.77
2017-12-11T19:35:28.572Z,56.43
2017-12-11T19:37:56.112Z,58.80
2017-12-11T19:40:23.673Z,65.80
2017-12-11T19:42:51.212Z,64.30
2017-12-11T19:45:19.560Z,61.57
2017-12-11T19:47:47.149Z,59.70
2017-12-11T19:50:14.696Z,54.30
2017-12-11T19:52:43.018Z,55.67
2017-12-11T19:55:10.548Z,66.80
2017-12-11T19:57:38.108Z,65.60
2017-12-11T20:00:05.653Z,58.17
2017-12-11T20:02:33.223Z,64.77
2017-12-11T20:05:00.773Z,55.00
2017-12-11T20:07:28.338Z,61.97
2017-12-11T20:09:55.888Z,57.80
2017-12-11T20:12:23.468Z,64.23
2017-12-11T20:14:51.774Z,63.70
2017-12-11T20:17:19.357Z,60.37
2017-12-11T20:19:47.661Z,64.50
2017-12-11T20:22:15.980Z,57.83
2017-12-11T20:24:43.523Z,51.80
2017-12-11T20:27:11.080Z,57.13
2017-12-11T20:29:38.615Z,58.40
2017-12-11T20:32:06.935Z,58.17
2017-12-11T20:34:34.485Z,53.73
2017-12-11T20:37:02.851Z,55.30
2017-12-11T20:39:30.400Z,52.33
2017-12-11T20:41:57.952Z,52.13
2017-12-11T20:44:25.496Z,55.47
2017-12-11T20:46:53.057Z,61.87
2017-12-11T20:49:20.604Z,56.10
2017-12-11T20:51:48.153Z,59.70
2017-12-11T20:54:15.712Z,55.07
2017-12-11T20:56:43.263Z,50.57
2017-12-11T20:59:11.588Z,52.60
2017-12-11T21:01:39.142Z,48.17
2017-12-11T21:04:06.725Z,46.77
2017-12-11T21:06:35.036Z,47.10
2017-12-11T21:09:03.364Z,47.57
2017-12-11T21:11:30.900Z,42.30
2017-12-11T21:13:58.731Z,46.50
2017-12-11T21:16:27.634Z,42.23
2017-12-11T21:18:55.187Z,42.57
2017-12-11T21:21:22.856Z,42.33
2017-12-11T21:23:50.422Z,46.80
2017-12-11T21:26:18.857Z,45.63
2017-12-11T21:28:46.772Z,45.63
2017-12-11T21:31:14.357Z,46.10
2017-12-11T21:33:42.706Z,35.07
2017-12-11T21:36:10.449Z,36.80
2017-12-11T21:38:38.907Z,44.60
2017-12-11T21:41:07.284Z,33.83
2017-12-11T21:43:34.819Z,35.30
2017-12-11T21:46:02.389Z,32.37
2017-12-11T21:48:29.926Z,28.47
2017-12-11T21:50:57.482Z,32.80
2017-12-11T21:53:25.031Z,30.30
2017-12-11T21:55:52.595Z,33.27
2017-12-11T21:58:20.128Z,28.60
2017-12-11T22:00:47.692Z,30.37
2017-12-11T22:03:15.230Z,28.17
2017-12-11T22:05:42.783Z,32.63
2017-12-11T22:08:10.324Z,26.27
2017-12-11T22:10:37.900Z,30.60
2017-12-11T22:13:05.440Z,27.10
2017-12-11T22:15:33.005Z,31.93
2017-12-11T22:18:00.544Z,30.10
2017-12-11T22:20:28.101Z,26.30
2017-12-11T22:22:56.403Z,23.40
2017-12-11T22:25:24.727Z,25.30
2017-12-11T22:27:52.259Z,24.07
2017-12-11T22:30:19.839Z,25.00
2017-12-11T22:32:47.400Z,27.80
2017-12-11T22:35:14.938Z,26.17
2017-12-11T22:37:43.259Z,28.87
2017-12-11T22:40:10.814Z,25.30
2017-12-11T22:42:38.372Z,28.53
2017-12-11T22:45:05.911Z,25.83
2017-12-11T22:47:33.476Z,24.67
2017-12-11T22:50:01.782Z,26.30
2017-12-11T22:52:30.105Z,23.87
2017-12-11T22:54:57.641Z,31.27
2017-12-11T22:57:25.200Z,30.07
2017-12-11T22:59:52.777Z,25.40
2017-12-11T23:02:20.392Z,29.30
2017-12-11T23:04:47.956Z,23.40
2017-12-11T23:07:15.532Z,24.80
2017-12-11T23:09:43.066Z,26.07
2017-12-11T23:12:11.366Z,28.33
2017-12-11T23:14:39.706Z,32.87
2017-12-11T23:17:07.253Z,26.23
2017-12-11T23:19:35.586Z,28.27
2017-12-11T23:22:03.119Z,28.33
2017-12-11T23:24:30.700Z,25.23
2017-12-11T23:26:58.244Z,24.23
2017-12-11T23:29:25.807Z,29.17
2017-12-11T23:31:53.362Z,26.60
2017-12-11T23:34:20.922Z,25.50
2017-12-11T23:36:48.464Z,28.00
2017-12-11T23:39:16.028Z,29.93
2017-12-11T23:41:44.331Z,29.63
2017-12-11T23:44:12.681Z,24.67
2017-12-11T23:46:40.220Z,27.60
2017-12-11T23:49:08.532Z,26.67
2017-12-11T23:51:36.855Z,25.33
2017-12-11T23:54:16.211Z,20.23
2017-12-11T23:56:43.773Z,25.57
2017-12-11T23:59:12.081Z,24.43
